createdAt,value
2018-06-15T00:00:41.680Z,99.90
2018-06-15T00:03:12.277Z,99.90
2018-06-15T00:05:43.779Z,99.90
2018-06-15T00:08:13.014Z,99.90
2018-06-15T00:13:42.239Z,99.90
2018-06-15T00:18:40.338Z,99.90
2018-06-15T00:21:09.547Z,99.90
2018-06-15T00:23:38.722Z,99.90
2018-06-15T00:28:36.889Z,99.90
2018-06-15T00:31:06.070Z,99.90
2018-06-15T00:33:35.300Z,99.90
2018-06-15T00:36:04.465Z,99.90
2018-06-15T00:38:56.894Z,99.90
2018-06-15T00:41:26.257Z,99.90
2018-06-15T00:43:55.604Z,99.90
2018-06-15T00:46:25.040Z,99.90
2018-06-15T00:51:23.339Z,99.90
2018-06-15T00:53:54.494Z,99.90
2018-06-15T00:56:23.838Z,99.90
2018-06-15T00:58:53.329Z,99.90
2018-06-15T01:01:22.698Z,99.90
2018-06-15T01:03:53.226Z,99.90
2018-06-15T01:09:22.853Z,99.90
2018-06-15T01:11:52.005Z,99.90
2018-06-15T01:14:21.178Z,99.90
2018-06-15T01:16:50.512Z,99.90
2018-06-15T01:22:20.678Z,99.90
2018-06-15T01:24:49.837Z,99.90
2018-06-15T01:27:19.022Z,99.90
2018-06-15T01:29:48.218Z,99.90
2018-06-15T01:32:17.369Z,99.90
2018-06-15T01:34:59.153Z,99.90
2018-06-15T01:37:28.318Z,99.90
2018-06-15T01:39:57.497Z,99.90
2018-06-15T01:42:26.710Z,99.90
2018-06-15T01:44:55.865Z,99.90
2018-06-15T01:47:25.025Z,99.90
2018-06-15T01:49:54.234Z,99.90
2018-06-15T01:52:24.105Z,99.90
2018-06-15T01:54:54.630Z,99.90
2018-06-15T01:57:24.749Z,99.90
2018-06-15T01:59:53.919Z,99.90
2018-06-15T02:05:23.774Z,99.90
2018-06-15T02:07:52.972Z,99.90
2018-06-15T02:10:22.144Z,99.90
2018-06-15T02:12:51.352Z,99.90
2018-06-15T02:15:20.530Z,99.90
2018-06-15T02:17:49.684Z,99.90
2018-06-15T02:20:18.878Z,99.90
2018-06-15T02:22:48.034Z,99.90
2018-06-15T02:25:17.462Z,99.90
2018-06-15T02:27:47.057Z,99.90
2018-06-15T02:30:16.606Z,99.90
2018-06-15T02:32:45.930Z,99.90
2018-06-15T02:35:15.146Z,99.90
2018-06-15T02:37:44.306Z,99.90
2018-06-15T02:40:13.474Z,99.90
2018-06-15T02:45:43.290Z,99.90
2018-06-15T02:48:12.704Z,99.90
2018-06-15T02:50:41.898Z,99.90
2018-06-15T02:53:11.141Z,99.90
2018-06-15T02:55:41.421Z,99.90
2018-06-15T02:58:11.224Z,99.90
2018-06-15T03:00:40.425Z,99.90
2018-06-15T03:03:09.581Z,99.90
2018-06-15T03:05:38.769Z,99.90
2018-06-15T03:08:07.945Z,99.90
2018-06-15T03:16:37.203Z,99.90
2018-06-15T03:19:06.411Z,99.90
2018-06-15T03:21:35.645Z,99.90
2018-06-15T03:24:04.829Z,99.90
2018-06-15T03:26:33.985Z,99.90
2018-06-15T03:29:03.174Z,99.90
2018-06-15T03:31:32.388Z,99.90
2018-06-15T03:34:01.584Z,99.90
2018-06-15T03:36:30.813Z,99.90
2018-06-15T03:39:00.030Z,99.90
2018-06-15T03:41:29.376Z,99.90
2018-06-15T03:43:58.616Z,99.90
2018-06-15T03:46:27.945Z,99.90
2018-06-15T03:48:57.126Z,99.90
2018-06-15T03:51:26.303Z,99.90
2018-06-15T03:53:55.518Z,99.90
2018-06-15T03:56:24.686Z,99.90
2018-06-15T03:58:54.195Z,99.90
2018-06-15T04:01:23.461Z,99.90
2018-06-15T04:03:52.750Z,99.90
2018-06-15T04:06:21.946Z,99.90
2018-06-15T04:11:50.888Z,99.90
2018-06-15T04:14:20.052Z,99.90
2018-06-15T04:16:49.218Z,99.90
2018-06-15T04:19:18.410Z,99.90
2018-06-15T04:21:47.565Z,99.90
2018-06-15T04:24:16.729Z,99.90
2018-06-15T04:26:45.925Z,99.90
2018-06-15T04:29:15.069Z,99.90
2018-06-15T04:31:44.224Z,99.90
2018-06-15T04:37:13.958Z,99.90
2018-06-15T04:39:43.131Z,99.90
2018-06-15T04:42:12.316Z,99.90
2018-06-15T04:44:41.500Z,99.90
2018-06-15T04:47:10.670Z,99.90
2018-06-15T04:49:40.205Z,99.90
2018-06-15T04:52:09.455Z,99.90
2018-06-15T04:54:38.651Z,99.90
2018-06-15T04:57:07.830Z,99.90
2018-06-15T04:59:37.232Z,99.90
2018-06-15T05:02:06.401Z,99.90
2018-06-15T05:07:35.361Z,99.90
2018-06-15T05:10:04.766Z,99.90
2018-06-15T05:12:33.931Z,99.90
2018-06-15T05:18:35.487Z,99.90
2018-06-15T05:21:04.694Z,99.90
2018-06-15T05:23:33.845Z,99.90
2018-06-15T05:26:03.084Z,99.90
2018-06-15T05:28:32.349Z,99.90
2018-06-15T05:31:01.522Z,99.90
2018-06-15T05:33:30.701Z,99.90
2018-06-15T05:36:00.071Z,99.90
2018-06-15T05:38:29.278Z,99.90
2018-06-15T05:40:58.472Z,99.90
2018-06-15T05:43:27.669Z,99.90
2018-06-15T05:48:57.523Z,99.90
2018-06-15T05:51:26.698Z,99.90
2018-06-15T05:53:55.878Z,99.90
2018-06-15T05:56:25.054Z,99.90
2018-06-15T05:58:54.225Z,99.90
2018-06-15T06:01:23.458Z,99.90
2018-06-15T06:03:52.708Z,99.90
2018-06-15T06:06:22.146Z,99.90
2018-06-15T06:08:51.364Z,99.90
2018-06-15T06:14:21.238Z,99.90
2018-06-15T06:19:58.021Z,99.90
2018-06-15T06:22:27.158Z,99.90
2018-06-15T06:24:57.846Z,99.90
2018-06-15T06:36:56.443Z,99.90
2018-06-15T07:18:12.465Z,99.90
2018-06-15T07:29:58.614Z,99.30
2018-06-15T08:06:15.795Z,97.90
2018-06-15T08:35:56.825Z,95.70
2018-06-15T08:47:26.207Z,91.00
2018-06-15T08:55:58.670Z,91.20
2018-06-15T08:58:56.621Z,91.80
2018-06-15T09:07:25.790Z,91.90
2018-06-15T09:18:58.405Z,91.40
2018-06-15T09:27:55.693Z,92.30
2018-06-15T09:36:55.644Z,91.30
2018-06-15T09:59:57.589Z,88.10
2018-06-15T10:02:26.761Z,83.90
2018-06-15T10:04:55.966Z,87.10
2018-06-15T10:10:25.598Z,88.70
2018-06-15T10:12:58.442Z,86.40
2018-06-15T10:15:57.098Z,83.70
2018-06-15T10:36:58.748Z,82.20
2018-06-15T10:59:26.506Z,78.50
2018-06-15T11:10:59.821Z,79.90
2018-06-15T11:16:56.025Z,81.30
2018-06-15T11:40:56.315Z,78.30
2018-06-15T14:31:18.097Z,58.60
2018-06-15T14:33:47.301Z,64.50
2018-06-15T14:39:18.596Z,60.50
2018-06-15T14:41:47.771Z,64.70
2018-06-15T14:44:22.756Z,64.90
2018-06-15T14:46:51.965Z,65.60
2018-06-15T14:50:57.813Z,61.40
2018-06-15T14:53:56.339Z,63.10
2018-06-15T15:14:55.813Z,61.00
2018-06-15T15:26:19.308Z,64.10
2018-06-15T15:40:58.713Z,60.70
2018-06-15T15:43:54.638Z,60.70
2018-06-15T15:49:25.273Z,66.10
2018-06-15T15:51:55.632Z,64.70
2018-06-15T15:54:24.827Z,63.00
2018-06-15T15:56:59.521Z,65.60
2018-06-15T15:59:55.897Z,65.50
2018-06-15T16:08:25.677Z,68.00
2018-06-15T17:48:25.838Z,70.60
2018-06-15T17:50:58.526Z,70.60
2018-06-15T17:53:27.700Z,70.20
2018-06-15T17:55:56.861Z,69.30
2018-06-15T17:58:26.031Z,68.80
2018-06-15T18:00:55.241Z,70.80
2018-06-15T18:03:24.399Z,71.70
2018-06-15T18:05:53.596Z,71.30
2018-06-15T18:08:22.794Z,71.00
2018-06-15T18:10:52.849Z,72.10
2018-06-15T18:13:22.080Z,72.50
2018-06-15T18:15:51.258Z,72.10
2018-06-15T18:18:20.437Z,75.30
2018-06-15T18:21:08.699Z,77.80
2018-06-15T18:23:37.900Z,80.00
2018-06-15T18:26:07.078Z,79.10
2018-06-15T18:33:55.769Z,77.60
2018-06-15T18:36:25.300Z,77.40
2018-06-15T18:50:57.311Z,76.90
2018-06-15T18:56:20.771Z,77.30
2018-06-15T18:58:58.016Z,77.50
2018-06-15T19:04:55.787Z,78.00
2018-06-15T19:13:25.876Z,78.00
2018-06-15T19:15:55.028Z,78.50
2018-06-15T19:18:24.206Z,78.20
2018-06-15T19:20:59.178Z,78.80
2018-06-15T19:23:57.054Z,80.30
2018-06-15T19:26:26.258Z,79.50
2018-06-15T19:32:00.059Z,79.70
2018-06-15T19:34:56.425Z,79.90
2018-06-15T19:40:25.606Z,80.50
2018-06-15T19:42:58.606Z,80.80
2018-06-15T19:45:57.255Z,81.20
2018-06-15T19:50:59.208Z,81.70
2018-06-15T19:53:55.913Z,81.80
2018-06-15T19:59:24.890Z,82.30
2018-06-15T20:01:54.105Z,82.70
2018-06-15T20:04:23.350Z,82.80
2018-06-15T20:06:52.605Z,83.00
2018-06-15T20:09:21.824Z,83.20
2018-06-15T20:11:57.862Z,83.40
2018-06-15T20:14:27.009Z,83.70
2018-06-15T20:16:56.168Z,83.90
2018-06-15T20:19:25.444Z,84.20
2018-06-15T20:21:54.593Z,84.50
2018-06-15T20:27:24.485Z,84.90
2018-06-15T20:29:53.730Z,85.10
2018-06-15T20:32:22.903Z,85.30
2018-06-15T20:34:52.111Z,85.60
2018-06-15T20:37:21.327Z,85.90
2018-06-15T20:39:57.613Z,86.10
2018-06-15T20:42:26.808Z,86.40
2018-06-15T20:44:56.057Z,86.60
2018-06-15T20:47:25.251Z,87.10
2018-06-15T20:49:54.469Z,87.10
2018-06-15T20:55:24.162Z,87.50
2018-06-15T20:57:53.353Z,87.80
2018-06-15T21:00:22.859Z,88.10
2018-06-15T21:02:52.022Z,88.30
2018-06-15T21:05:21.219Z,88.70
2018-06-15T21:07:50.482Z,88.80
2018-06-15T21:10:19.662Z,89.10
2018-06-15T21:12:48.857Z,89.20
2018-06-15T21:15:18.205Z,89.40
2018-06-15T21:17:47.466Z,89.70
2018-06-15T21:20:16.721Z,90.00
2018-06-15T21:25:45.987Z,90.10
2018-06-15T21:28:15.229Z,90.30
2018-06-15T21:30:44.413Z,90.30
2018-06-15T21:33:13.613Z,90.40
2018-06-15T21:38:43.457Z,90.60
2018-06-15T21:43:41.612Z,91.10
2018-06-15T21:46:10.800Z,90.90
2018-06-15T21:51:39.918Z,91.10
2018-06-15T21:54:09.064Z,91.30
2018-06-15T21:56:38.236Z,91.30
2018-06-15T21:59:07.422Z,91.40
2018-06-15T22:01:37.256Z,91.50
2018-06-15T22:04:06.437Z,91.60
2018-06-15T22:06:35.627Z,91.70
2018-06-15T22:09:07.305Z,91.80
2018-06-15T22:11:36.518Z,92.00
2018-06-15T22:14:05.714Z,92.50
2018-06-15T22:19:14.981Z,92.40
2018-06-15T22:21:44.145Z,92.40
2018-06-15T22:24:13.352Z,92.40
2018-06-15T22:26:42.580Z,92.50
2018-06-15T22:29:11.799Z,92.80
2018-06-15T22:31:57.864Z,92.80
2018-06-15T22:34:27.116Z,93.40
2018-06-15T22:39:56.633Z,93.60
2018-06-15T22:42:25.812Z,93.40
2018-06-15T22:44:54.981Z,93.40
2018-06-15T22:47:24.186Z,93.50
2018-06-15T22:49:53.351Z,93.50
2018-06-15T22:52:22.516Z,93.70
2018-06-15T22:54:51.800Z,93.70
2018-06-15T22:57:20.974Z,93.80
2018-06-15T22:59:50.196Z,93.90
2018-06-15T23:02:19.368Z,93.90
2018-06-15T23:04:48.621Z,94.00
2018-06-15T23:07:17.805Z,94.10
2018-06-15T23:09:46.966Z,94.00
2018-06-15T23:12:16.150Z,94.10
2018-06-15T23:17:57.798Z,94.40
2018-06-15T23:20:26.989Z,94.60
2018-06-15T23:22:56.174Z,95.60
2018-06-15T23:25:25.377Z,96.00
2018-06-15T23:27:54.525Z,95.60
2018-06-15T23:30:23.722Z,95.10
2018-06-15T23:32:53.014Z,95.30
2018-06-15T23:35:22.289Z,95.30
2018-06-15T23:37:51.478Z,95.50
2018-06-15T23:40:20.662Z,95.50
2018-06-15T23:42:58.110Z,95.20
2018-06-15T23:45:27.263Z,95.70
2018-06-15T23:47:56.448Z,96.60
2018-06-15T23:50:25.642Z,97.00
2018-06-15T23:52:54.801Z,97.50
2018-06-15T23:58:24.629Z,96.80
